createdAt,value
2024-04-19T00:00:53.442Z,67.55
2024-04-19T00:03:23.764Z,68.27
2024-04-19T00:05:53.457Z,68.25
2024-04-19T00:08:34.881Z,67.90
2024-04-19T00:11:01.834Z,67.87
2024-04-19T00:13:32.342Z,68.22
2024-04-19T00:15:59.329Z,68.31
2024-04-19T00:18:28.953Z,68.54
2024-04-19T00:20:59.011Z,69.13
2024-04-19T00:23:28.838Z,69.15
2024-04-19T00:25:55.798Z,68.44
2024-04-19T00:28:40.445Z,68.21
2024-04-19T00:31:07.381Z,68.33
2024-04-19T00:33:37.644Z,67.86
2024-04-19T00:36:07.879Z,69.00
2024-04-19T00:38:37.395Z,69.19
2024-04-19T00:41:05.165Z,68.23
2024-04-19T00:43:34.714Z,67.69
2024-04-19T00:46:01.756Z,67.68
2024-04-19T00:48:31.578Z,67.88
2024-04-19T00:51:02.739Z,68.39
2024-04-19T00:53:33.462Z,67.71
2024-04-19T00:56:23.528Z,67.96
2024-04-19T00:58:51.549Z,68.18
2024-04-19T01:01:21.794Z,68.49
2024-04-19T01:03:51.571Z,68.82
2024-04-19T01:06:18.591Z,67.58
2024-04-19T01:08:50.777Z,67.58
2024-04-19T01:11:29.805Z,68.28
2024-04-19T01:13:59.828Z,68.66
2024-04-19T01:16:26.793Z,68.22
2024-04-19T01:18:56.299Z,68.62
2024-04-19T01:21:24.914Z,67.93
2024-04-19T01:24:06.210Z,68.29
2024-04-19T01:26:35.712Z,68.12
2024-04-19T01:29:05.207Z,68.77
2024-04-19T01:31:32.314Z,68.32
2024-04-19T01:34:01.958Z,69.22
2024-04-19T01:36:29.302Z,69.26
2024-04-19T01:38:59.848Z,69.40
2024-04-19T01:41:27.031Z,69.19
2024-04-19T01:43:59.816Z,68.60
2024-04-19T01:46:26.855Z,68.35
2024-04-19T01:48:56.457Z,68.83
2024-04-19T01:51:23.478Z,68.81
2024-04-19T01:53:53.093Z,68.87
2024-04-19T01:56:20.029Z,70.01
2024-04-19T01:58:49.530Z,70.11
2024-04-19T02:01:19.561Z,70.20
2024-04-19T02:03:49.261Z,70.10
2024-04-19T02:06:16.824Z,70.53
2024-04-19T02:08:46.395Z,71.17
2024-04-19T02:11:13.314Z,71.36
2024-04-19T02:13:43.404Z,71.02
2024-04-19T02:16:10.464Z,71.32
2024-04-19T02:18:42.681Z,71.55
2024-04-19T02:21:09.642Z,71.56
2024-04-19T02:23:46.218Z,72.06
2024-04-19T02:26:13.475Z,72.00
2024-04-19T02:28:59.823Z,71.57
2024-04-19T02:31:30.159Z,71.96
2024-04-19T02:34:02.408Z,71.75
2024-04-19T02:36:32.033Z,71.56
2024-04-19T02:39:01.688Z,72.35
2024-04-19T02:41:31.227Z,72.27
2024-04-19T02:44:00.754Z,72.54
2024-04-19T02:46:30.510Z,71.78
2024-04-19T02:49:02.801Z,71.61
2024-04-19T02:51:32.360Z,71.68
2024-04-19T02:54:02.656Z,72.19
2024-04-19T02:56:32.261Z,71.78
2024-04-19T02:59:02.382Z,72.39
2024-04-19T03:01:31.980Z,71.46
2024-04-19T03:04:04.244Z,72.41
2024-04-19T03:06:33.838Z,72.04
2024-04-19T03:09:05.101Z,72.12
2024-04-19T03:11:55.837Z,72.60
2024-04-19T03:14:27.526Z,72.79
2024-04-19T03:16:58.565Z,72.77
2024-04-19T03:19:48.658Z,73.17
2024-04-19T03:22:19.544Z,72.44
2024-04-19T03:24:49.201Z,72.64
2024-04-19T03:27:18.788Z,73.45
2024-04-19T03:29:56.283Z,73.65
2024-04-19T03:32:26.445Z,74.15
2024-04-19T03:34:58.834Z,76.09
2024-04-19T03:37:28.392Z,75.81
2024-04-19T03:39:57.998Z,75.70
2024-04-19T03:42:24.977Z,76.46
2024-04-19T03:45:10.304Z,76.24
2024-04-19T03:47:39.967Z,76.58
2024-04-19T03:50:12.510Z,77.95
2024-04-19T03:52:42.063Z,78.99
2024-04-19T03:55:11.612Z,78.55
2024-04-19T03:57:41.176Z,78.15
2024-04-19T04:00:11.600Z,80.11
2024-04-19T04:02:44.037Z,79.51
2024-04-19T04:05:16.698Z,79.54
2024-04-19T04:07:46.238Z,80.35
2024-04-19T04:10:15.817Z,80.91
2024-04-19T04:12:45.607Z,81.40
2024-04-19T04:15:15.219Z,81.11
2024-04-19T04:17:44.810Z,79.70
2024-04-19T04:20:17.062Z,79.51
2024-04-19T04:22:46.662Z,80.17
2024-04-19T04:25:16.185Z,80.66
2024-04-19T04:27:45.809Z,81.01
2024-04-19T04:30:15.537Z,81.23
2024-04-19T04:32:45.780Z,81.04
2024-04-19T04:35:18.452Z,81.08
2024-04-19T04:37:48.015Z,81.17
2024-04-19T04:40:17.626Z,81.24
2024-04-19T04:42:47.172Z,82.51
2024-04-19T04:45:18.644Z,82.95
2024-04-19T04:47:48.096Z,82.51
2024-04-19T04:50:21.098Z,83.95
2024-04-19T04:52:50.762Z,83.72
2024-04-19T04:55:20.310Z,83.07
2024-04-19T04:57:49.908Z,83.43
2024-04-19T05:00:20.056Z,83.44
2024-04-19T05:02:50.122Z,84.14
2024-04-19T05:05:22.241Z,84.07
2024-04-19T05:07:51.840Z,84.45
2024-04-19T05:10:21.704Z,84.18
2024-04-19T05:12:51.330Z,83.65
2024-04-19T05:15:21.003Z,84.13
2024-04-19T05:17:50.652Z,84.16
2024-04-19T05:20:22.888Z,84.26
2024-04-19T05:22:52.405Z,84.42
2024-04-19T05:25:21.890Z,84.41
2024-04-19T05:27:51.521Z,84.61
2024-04-19T05:30:21.170Z,84.03
2024-04-19T05:32:50.738Z,84.15
2024-04-19T05:35:22.890Z,84.93
2024-04-19T05:37:52.392Z,84.83
2024-04-19T05:40:22.168Z,84.50
2024-04-19T05:42:52.354Z,84.04
2024-04-19T05:45:22.178Z,84.61
2024-04-19T05:47:51.846Z,84.35
2024-04-19T05:50:24.085Z,83.94
2024-04-19T05:52:53.653Z,82.73
2024-04-19T05:55:23.149Z,84.21
2024-04-19T05:57:52.812Z,83.71
2024-04-19T06:00:22.418Z,84.23
2024-04-19T06:02:52.149Z,83.97
2024-04-19T06:05:24.270Z,84.46
2024-04-19T06:07:53.807Z,84.02
2024-04-19T06:10:23.372Z,83.36
2024-04-19T06:12:53.073Z,84.53
2024-04-19T06:15:23.019Z,83.59
2024-04-19T06:17:55.634Z,83.51
2024-04-19T06:20:27.881Z,83.00
2024-04-19T06:22:57.478Z,83.26
2024-04-19T06:25:27.007Z,82.77
2024-04-19T06:27:56.567Z,82.74
2024-04-19T06:30:28.057Z,82.50
2024-04-19T06:32:57.434Z,82.32
2024-04-19T06:35:29.552Z,82.40
2024-04-19T06:37:59.084Z,82.33
2024-04-19T06:40:28.735Z,82.96
2024-04-19T06:42:58.488Z,82.76
2024-04-19T06:45:28.197Z,82.41
2024-04-19T06:47:59.093Z,83.55
2024-04-19T06:50:31.714Z,83.33
2024-04-19T06:53:01.218Z,83.57
2024-04-19T06:55:30.716Z,83.50
2024-04-19T06:58:00.534Z,83.13
2024-04-19T07:00:37.656Z,82.94
2024-04-19T07:03:17.760Z,83.61
2024-04-19T07:05:51.690Z,82.93
2024-04-19T07:08:21.352Z,83.10
2024-04-19T07:10:51.390Z,83.51
2024-04-19T07:13:21.023Z,83.54
2024-04-19T07:15:50.686Z,82.67
2024-04-19T07:18:23.543Z,83.33
2024-04-19T07:20:55.963Z,83.22
2024-04-19T07:23:26.191Z,82.81
2024-04-19T07:25:55.832Z,83.52
2024-04-19T07:28:25.532Z,83.56
2024-04-19T07:30:55.102Z,83.81
2024-04-19T07:33:24.705Z,83.16
2024-04-19T07:35:56.830Z,83.17
2024-04-19T07:38:26.369Z,83.33
2024-04-19T07:40:55.892Z,83.38
2024-04-19T07:43:25.562Z,84.09
2024-04-19T07:45:55.208Z,83.92
2024-04-19T07:48:25.297Z,84.01
2024-04-19T07:50:57.541Z,84.31
2024-04-19T07:53:27.079Z,84.00
2024-04-19T07:55:56.589Z,83.79
2024-04-19T07:58:27.427Z,83.46
2024-04-19T08:00:57.714Z,84.21
2024-04-19T08:03:27.436Z,84.13
2024-04-19T08:05:59.642Z,83.79
2024-04-19T08:08:29.152Z,84.26
2024-04-19T08:10:58.674Z,84.71
2024-04-19T08:13:28.176Z,84.88
2024-04-19T08:15:57.760Z,84.47
2024-04-19T08:18:27.668Z,85.29
2024-04-19T08:20:59.813Z,84.93
2024-04-19T08:23:29.399Z,84.84
2024-04-19T08:25:59.385Z,84.46
2024-04-19T08:28:28.992Z,84.08
2024-04-19T08:30:58.685Z,84.58
2024-04-19T08:33:28.386Z,84.00
2024-04-19T08:36:01.219Z,84.23
2024-04-19T08:38:30.770Z,84.42
2024-04-19T08:41:01.645Z,84.67
2024-04-19T08:43:34.883Z,84.29
2024-04-19T08:46:04.993Z,84.28
2024-04-19T08:48:36.137Z,84.00
2024-04-19T08:51:18.094Z,84.72
2024-04-19T08:53:54.211Z,85.33
2024-04-19T08:56:24.553Z,85.07
2024-04-19T08:58:56.175Z,84.05
2024-04-19T09:01:26.415Z,84.30
2024-04-19T09:03:56.350Z,84.38
2024-04-19T09:06:31.138Z,85.36
2024-04-19T09:09:01.010Z,84.87
2024-04-19T09:11:30.610Z,85.03
2024-04-19T09:14:00.193Z,84.74
2024-04-19T09:16:29.707Z,84.68
2024-04-19T09:19:00.743Z,86.33
2024-04-19T09:21:33.268Z,85.74
2024-04-19T09:24:02.997Z,86.65
2024-04-19T09:26:32.851Z,85.90
2024-04-19T09:29:02.449Z,85.78
2024-04-19T09:31:31.990Z,86.24
2024-04-19T09:34:01.553Z,85.92
2024-04-19T09:36:33.916Z,85.94
2024-04-19T09:39:05.155Z,86.43
2024-04-19T09:41:37.481Z,85.95
2024-04-19T09:44:09.960Z,86.14
2024-04-19T09:46:44.128Z,85.59
2024-04-19T09:49:14.413Z,86.54
2024-04-19T09:51:49.887Z,86.46
2024-04-19T09:54:24.121Z,87.24
2024-04-19T09:56:58.982Z,87.19
2024-04-19T09:59:26.359Z,87.74
2024-04-19T10:01:57.682Z,87.05
2024-04-19T10:04:29.776Z,87.46
2024-04-19T10:07:02.864Z,87.84
2024-04-19T10:09:34.119Z,88.04
2024-04-19T10:12:05.455Z,87.60
2024-04-19T10:14:35.750Z,88.35
2024-04-19T10:17:05.437Z,88.22
2024-04-19T10:19:45.445Z,88.18
2024-04-19T10:22:27.076Z,88.36
2024-04-19T10:25:01.718Z,88.20
2024-04-19T10:27:32.011Z,88.31
2024-04-19T10:30:01.723Z,88.11
2024-04-19T10:32:32.398Z,88.41
2024-04-19T10:35:01.920Z,89.06
2024-04-19T10:37:34.045Z,88.71
2024-04-19T10:40:03.544Z,88.39
2024-04-19T10:42:33.106Z,88.88
2024-04-19T10:45:02.690Z,89.36
2024-04-19T10:47:32.653Z,89.48
2024-04-19T10:50:02.332Z,88.92
2024-04-19T10:52:37.152Z,88.94
2024-04-19T10:55:06.870Z,89.56
2024-04-19T10:57:36.397Z,89.23
2024-04-19T11:00:06.494Z,89.40
2024-04-19T11:02:36.764Z,89.82
2024-04-19T11:05:06.604Z,89.74
2024-04-19T11:07:39.325Z,90.22
2024-04-19T11:10:10.980Z,90.74
2024-04-19T11:12:42.225Z,91.12
2024-04-19T11:15:11.940Z,91.09
2024-04-19T11:17:41.983Z,90.77
2024-04-19T11:20:12.476Z,90.59
2024-04-19T11:22:44.665Z,90.38
2024-04-19T11:25:14.150Z,90.83
2024-04-19T11:27:44.583Z,91.10
2024-04-19T11:30:14.435Z,90.38
2024-04-19T11:32:44.652Z,90.95
2024-04-19T11:35:14.181Z,91.34
2024-04-19T11:37:48.246Z,90.92
2024-04-19T11:40:22.648Z,91.12
2024-04-19T11:42:53.643Z,91.34
2024-04-19T11:45:23.536Z,91.19
2024-04-19T11:47:54.137Z,91.32
2024-04-19T11:50:24.779Z,90.89
2024-04-19T11:52:56.856Z,90.80
2024-04-19T11:55:26.769Z,90.79
2024-04-19T11:57:59.587Z,90.66
2024-04-19T12:00:29.248Z,90.67
2024-04-19T12:02:58.933Z,90.70
2024-04-19T12:05:29.124Z,90.98
2024-04-19T12:08:01.488Z,90.90
2024-04-19T12:10:31.278Z,90.63
2024-04-19T12:13:49.598Z,90.50
2024-04-19T12:16:29.068Z,91.05
2024-04-19T12:18:40.090Z,90.49
2024-04-19T12:21:11.121Z,90.58
2024-04-19T12:23:45.726Z,90.86
2024-04-19T12:26:16.932Z,90.79
2024-04-19T12:28:54.195Z,91.06
2024-04-19T12:31:25.374Z,91.24
2024-04-19T12:33:55.254Z,90.93
2024-04-19T12:36:24.829Z,90.74
2024-04-19T12:38:57.185Z,90.84
2024-04-19T12:41:26.815Z,90.67
2024-04-19T12:43:56.614Z,90.54
2024-04-19T12:46:26.234Z,90.42
2024-04-19T12:49:05.256Z,90.17
2024-04-19T12:51:35.372Z,90.00
2024-04-19T12:54:08.141Z,90.66
2024-04-19T12:56:38.164Z,90.92
2024-04-19T12:59:07.839Z,90.58
2024-04-19T13:01:37.565Z,90.90
2024-04-19T13:04:07.551Z,90.66
2024-04-19T13:06:37.431Z,90.78
2024-04-19T13:09:09.651Z,91.37
2024-04-19T13:11:39.222Z,90.89
2024-04-19T13:14:08.777Z,91.41
2024-04-19T13:16:38.455Z,90.34
2024-04-19T13:19:08.065Z,90.61
2024-04-19T13:21:37.715Z,90.62
2024-04-19T13:24:10.238Z,90.52
2024-04-19T13:26:39.874Z,90.53
2024-04-19T13:29:09.403Z,90.89
2024-04-19T13:31:39.028Z,90.93
2024-04-19T13:34:08.572Z,90.64
2024-04-19T13:36:35.626Z,91.05
2024-04-19T13:39:05.778Z,91.56
2024-04-19T13:41:38.436Z,91.10
2024-04-19T13:44:08.274Z,90.78
2024-04-19T13:46:37.870Z,90.52
2024-04-19T13:49:07.405Z,90.63
2024-04-19T13:51:34.457Z,90.80
2024-04-19T13:54:03.980Z,91.06
2024-04-19T13:56:34.372Z,91.28
2024-04-19T13:59:08.322Z,91.08
2024-04-19T14:01:38.045Z,91.05
2024-04-19T14:04:07.696Z,91.13
2024-04-19T14:06:37.387Z,90.88
2024-04-19T14:09:09.033Z,91.30
2024-04-19T14:11:38.972Z,91.28
2024-04-19T14:14:11.094Z,91.23
2024-04-19T14:16:40.730Z,90.92
2024-04-19T14:19:10.700Z,91.01
2024-04-19T14:21:40.264Z,90.89
2024-04-19T14:24:10.165Z,91.55
2024-04-19T14:26:39.768Z,91.93
2024-04-19T14:29:11.914Z,91.77
2024-04-19T14:31:41.469Z,91.48
2024-04-19T14:34:10.961Z,91.26
2024-04-19T14:36:41.431Z,91.89
2024-04-19T14:39:11.010Z,90.76
2024-04-19T14:41:41.017Z,90.93
2024-04-19T14:44:13.150Z,90.46
2024-04-19T14:46:44.521Z,90.60
2024-04-19T14:49:13.964Z,90.96
2024-04-19T14:51:43.545Z,91.23
2024-04-19T14:54:13.330Z,90.58
2024-04-19T14:56:42.852Z,90.10
2024-04-19T14:59:18.090Z,88.70
2024-04-19T15:01:48.094Z,89.23
2024-04-19T15:04:17.831Z,88.62
2024-04-19T15:06:47.772Z,87.85
2024-04-19T15:09:17.429Z,89.03
2024-04-19T15:11:47.233Z,87.99
2024-04-19T15:14:16.753Z,87.64
2024-04-19T15:16:46.389Z,87.78
2024-04-19T15:19:17.767Z,87.07
2024-04-19T15:21:47.177Z,86.45
2024-04-19T15:24:16.797Z,85.98
2024-04-19T15:26:46.320Z,86.91
2024-04-19T15:29:15.893Z,86.85
2024-04-19T15:31:48.307Z,86.71
2024-04-19T15:34:40.461Z,85.91
2024-04-19T15:37:08.936Z,85.68
2024-04-19T15:39:38.557Z,87.00
2024-04-19T15:42:12.200Z,85.45
2024-04-19T15:44:43.543Z,86.24
2024-04-19T15:47:16.000Z,85.40
2024-04-19T15:49:51.326Z,85.96
2024-04-19T15:52:22.158Z,86.08
2024-04-19T15:54:53.110Z,85.97
2024-04-19T15:57:23.028Z,86.06
2024-04-19T15:59:55.780Z,86.13
2024-04-19T16:02:28.037Z,86.38
2024-04-19T16:04:57.822Z,85.73
2024-04-19T16:07:27.342Z,87.29
2024-04-19T16:09:56.959Z,86.10
2024-04-19T16:12:26.732Z,85.71
2024-04-19T16:14:59.022Z,85.45
2024-04-19T16:17:33.063Z,84.94
2024-04-19T16:20:04.878Z,85.82
2024-04-19T16:22:35.886Z,86.38
2024-04-19T16:25:05.609Z,83.98
2024-04-19T16:27:35.267Z,84.77
2024-04-19T16:30:05.795Z,84.08
2024-04-19T16:32:38.106Z,84.04
2024-04-19T16:35:08.199Z,84.45
2024-04-19T16:37:40.872Z,84.35
2024-04-19T16:40:11.699Z,84.70
2024-04-19T16:42:41.311Z,83.95
2024-04-19T16:45:10.964Z,84.46
2024-04-19T16:47:50.918Z,84.19
2024-04-19T16:50:21.090Z,84.75
2024-04-19T16:52:50.756Z,85.12
2024-04-19T16:55:20.267Z,84.80
2024-04-19T16:57:49.899Z,85.71
2024-04-19T17:00:20.328Z,85.79
2024-04-19T17:02:52.446Z,85.64
2024-04-19T17:05:22.006Z,86.18
2024-04-19T17:07:51.587Z,85.98
2024-04-19T17:10:21.129Z,85.49
2024-04-19T17:12:50.723Z,85.78
2024-04-19T17:15:20.225Z,84.33
2024-04-19T17:17:55.265Z,84.12
2024-04-19T17:20:25.096Z,83.86
2024-04-19T17:22:54.597Z,83.89
2024-04-19T17:25:24.326Z,83.22
2024-04-19T17:27:54.006Z,83.52
2024-04-19T17:30:24.546Z,83.16
2024-04-19T17:32:56.802Z,83.77
2024-04-19T17:35:26.371Z,83.08
2024-04-19T17:37:55.911Z,84.29
2024-04-19T17:40:25.551Z,83.64
2024-04-19T17:42:55.796Z,85.05
2024-04-19T17:45:25.479Z,84.35
2024-04-19T17:47:57.684Z,84.12
2024-04-19T17:50:27.286Z,84.59
2024-04-19T17:52:56.762Z,84.21
2024-04-19T17:55:26.236Z,84.24
2024-04-19T17:57:55.837Z,84.13
2024-04-19T18:00:25.438Z,83.27
2024-04-19T18:02:57.881Z,83.75
2024-04-19T18:05:27.447Z,84.17
2024-04-19T18:07:56.967Z,83.81
2024-04-19T18:10:26.487Z,83.07
2024-04-19T18:12:57.083Z,82.78
2024-04-19T18:15:27.223Z,82.58
2024-04-19T18:18:03.389Z,81.87
2024-04-19T18:20:32.991Z,81.54
2024-04-19T18:23:02.973Z,81.36
2024-04-19T18:25:34.135Z,80.68
2024-04-19T18:28:04.019Z,79.63
2024-04-19T18:30:33.722Z,78.65
2024-04-19T18:33:07.146Z,76.60
2024-04-19T18:35:37.083Z,74.78
2024-04-19T18:38:07.091Z,76.25
2024-04-19T18:40:36.578Z,73.91
2024-04-19T18:43:07.336Z,73.98
2024-04-19T18:45:38.178Z,73.62
2024-04-19T18:48:13.292Z,73.36
2024-04-19T18:50:42.925Z,73.71
2024-04-19T18:53:12.557Z,71.84
2024-04-19T18:55:42.085Z,71.23
2024-04-19T18:58:11.647Z,70.91
2024-04-19T19:00:41.173Z,70.24
2024-04-19T19:03:13.269Z,70.79
2024-04-19T19:05:42.897Z,70.77
2024-04-19T19:08:12.941Z,70.35
2024-04-19T19:10:42.516Z,69.55
2024-04-19T19:13:12.145Z,69.44
2024-04-19T19:15:42.726Z,70.97
2024-04-19T19:18:14.972Z,70.02
2024-04-19T19:20:44.520Z,69.81
2024-04-19T19:23:14.586Z,70.00
2024-04-19T19:25:44.068Z,69.48
2024-04-19T19:28:14.336Z,68.37
2024-04-19T19:30:44.243Z,68.23
2024-04-19T19:33:16.833Z,68.00
2024-04-19T19:35:46.421Z,67.74
2024-04-19T19:38:15.947Z,67.90
2024-04-19T19:40:48.140Z,68.94
2024-04-19T19:43:20.942Z,67.60
2024-04-19T19:45:58.547Z,68.71
2024-04-19T19:48:34.052Z,68.01
2024-04-19T19:51:05.758Z,68.96
2024-04-19T19:53:35.674Z,67.67
2024-04-19T19:56:05.215Z,68.49
2024-04-19T19:58:34.723Z,68.38
2024-04-19T20:01:20.160Z,68.67
2024-04-19T20:04:08.644Z,69.09
2024-04-19T20:06:38.385Z,69.80
2024-04-19T20:09:07.908Z,69.35
2024-04-19T20:11:39.361Z,69.20
2024-04-19T20:14:09.077Z,69.08
2024-04-19T20:16:39.130Z,68.86
2024-04-19T20:19:11.330Z,70.23
2024-04-19T20:21:40.945Z,70.44
2024-04-19T20:24:10.526Z,70.22
2024-04-19T20:26:40.088Z,70.73
2024-04-19T20:29:14.348Z,69.31
2024-04-19T20:31:43.947Z,70.65
2024-04-19T20:34:18.426Z,69.93
2024-04-19T20:36:48.118Z,70.05
2024-04-19T20:39:17.667Z,70.60
2024-04-19T20:41:47.161Z,70.38
2024-04-19T20:44:17.528Z,70.83
2024-04-19T20:46:47.116Z,70.39
2024-04-19T20:49:19.330Z,70.04
2024-04-19T20:51:48.865Z,71.22
2024-04-19T20:54:18.424Z,71.32
2024-04-19T20:56:48.436Z,71.84
2024-04-19T20:59:17.948Z,71.13
2024-04-19T21:01:47.563Z,71.90
2024-04-19T21:04:19.810Z,70.50
2024-04-19T21:06:49.341Z,69.89
2024-04-19T21:09:18.911Z,70.37
2024-04-19T21:11:48.438Z,71.36
2024-04-19T21:14:17.940Z,70.68
2024-04-19T21:16:47.834Z,70.09
2024-04-19T21:19:20.413Z,70.95
2024-04-19T21:21:50.063Z,71.14
2024-04-19T21:24:19.673Z,72.11
2024-04-19T21:26:47.550Z,71.72
2024-04-19T21:29:17.060Z,72.22
2024-04-19T21:31:46.635Z,72.44
2024-04-19T21:34:16.322Z,72.28
2024-04-19T21:36:51.786Z,71.61
2024-04-19T21:39:21.433Z,71.48
2024-04-19T21:41:50.934Z,70.85
2024-04-19T21:44:20.460Z,72.22
2024-04-19T21:46:51.255Z,71.58
2024-04-19T21:49:20.811Z,71.64
2024-04-19T21:51:53.081Z,71.77
2024-04-19T21:54:22.670Z,72.82
2024-04-19T21:56:52.174Z,72.24
2024-04-19T21:59:21.698Z,71.90
2024-04-19T22:01:53.366Z,71.63
2024-04-19T22:04:20.387Z,71.66
2024-04-19T22:06:50.006Z,72.28
2024-04-19T22:09:22.190Z,71.53
2024-04-19T22:11:51.786Z,71.71
2024-04-19T22:14:21.309Z,72.58
2024-04-19T22:16:50.929Z,72.45
2024-04-19T22:19:20.443Z,73.21
2024-04-19T22:21:50.781Z,72.72
2024-04-19T22:24:23.011Z,72.72
2024-04-19T22:26:52.607Z,72.95
2024-04-19T22:29:22.176Z,72.88
2024-04-19T22:31:55.367Z,72.64
2024-04-19T22:34:24.952Z,72.82
2024-04-19T22:36:54.507Z,72.07
2024-04-19T22:39:26.726Z,72.78
2024-04-19T22:41:57.938Z,72.34
2024-04-19T22:44:27.517Z,72.99
2024-04-19T22:46:57.026Z,72.20
2024-04-19T22:49:26.580Z,72.75
2024-04-19T22:51:56.500Z,71.91
2024-04-19T22:54:28.729Z,72.26
2024-04-19T22:56:58.275Z,72.59
2024-04-19T22:59:27.837Z,73.18
2024-04-19T23:01:57.385Z,73.02
2024-04-19T23:04:27.053Z,73.30
2024-04-19T23:06:56.736Z,74.82
2024-04-19T23:09:29.562Z,74.56
2024-04-19T23:11:59.091Z,74.13
2024-04-19T23:14:28.741Z,74.25
2024-04-19T23:16:58.277Z,74.95
2024-04-19T23:19:27.882Z,74.79
2024-04-19T23:21:57.395Z,75.04
2024-04-19T23:24:29.605Z,75.44
2024-04-19T23:26:56.774Z,75.89
2024-04-19T23:29:26.330Z,75.46
2024-04-19T23:31:55.856Z,76.64
2024-04-19T23:34:25.381Z,75.63
2024-04-19T23:36:55.016Z,76.27
2024-04-19T23:39:24.701Z,76.58
2024-04-19T23:41:56.958Z,76.57
2024-04-19T23:44:26.548Z,76.54
2024-04-19T23:46:56.056Z,76.63
2024-04-19T23:49:25.786Z,76.45
2024-04-19T23:51:56.944Z,76.59
2024-04-19T23:54:26.465Z,77.11
2024-04-19T23:56:58.614Z,76.85
2024-04-19T23:59:28.755Z,78.42
